Time;durP1;ratioP1;P1;durP2;ratioP2;P2;SDS_P1;SDS_P2;PMS_P1;PMS_P2;Temp;Humidity;BMP_temperature;BMP_pressure;BME280_temperature;BME280_humidity;BME280_pressure;Samples;Min_cycle;Max_cycle;Signal;HPM_P1;HPM_P2
2023/02/03 00:02:17;;;;;;;5.63;4.90;;;;;;;5.95;100.00;100779.97;5013888;28;20184;-86
2023/02/03 00:04:43;;;;;;;6.63;4.13;;;;;;;6.05;100.00;100784.56;5014108;28;20212;-88
2023/02/03 00:07:11;;;;;;;4.13;3.77;;;;;;;6.17;100.00;100783.19;5013932;28;20184;-88
2023/02/03 00:09:36;;;;;;;9.47;6.67;;;;;;;6.25;100.00;100787.25;5013934;28;20204;-86
2023/02/03 00:12:01;;;;;;;7.20;6.50;;;;;;;6.33;100.00;100786.69;5013784;28;20176;-85
2023/02/03 00:14:27;;;;;;;8.50;7.43;;;;;;;6.38;100.00;100789.41;5014245;28;20180;-81
2023/02/03 00:16:52;;;;;;;6.83;6.20;;;;;;;6.40;100.00;100787.22;5013878;28;20187;-83
2023/02/03 00:19:17;;;;;;;9.20;8.40;;;;;;;6.44;100.00;100776.63;5013718;28;20238;-88
2023/02/03 00:21:43;;;;;;;8.13;7.37;;;;;;;6.47;100.00;100776.06;5011961;28;20560;-86
2023/02/03 00:24:08;;;;;;;11.83;10.17;;;;;;;6.49;100.00;100771.19;5013902;28;20184;-88
2023/02/03 00:26:39;;;;;;;11.00;10.00;;;;;;;6.48;100.00;100773.06;5013562;28;20173;-89
2023/02/03 00:29:04;;;;;;;10.73;8.50;;;;;;;6.46;100.00;100763.59;5013516;28;20204;-85
2023/02/03 00:31:29;;;;;;;10.80;9.77;;;;;;;6.48;100.00;100764.94;5013285;28;20300;-85
2023/02/03 00:33:56;;;;;;;12.17;8.73;;;;;;;6.49;100.00;100761.13;5013475;28;20592;-85
2023/02/03 00:36:22;;;;;;;12.70;10.43;;;;;;;6.52;100.00;100760.59;5012423;28;20214;-85
2023/02/03 00:38:49;;;;;;;11.43;9.47;;;;;;;6.54;100.00;100763.03;5013124;28;20195;-83
2023/02/03 00:41:14;;;;;;;12.60;11.27;;;;;;;6.55;100.00;100756.53;5013141;28;20231;-85
2023/02/03 00:43:40;;;;;;;9.67;8.87;;;;;;;6.57;100.00;100757.84;5013198;28;20640;-82
2023/02/03 00:46:05;;;;;;;13.10;10.83;;;;;;;6.60;100.00;100752.97;5012040;28;20242;-86
2023/02/03 00:48:30;;;;;;;17.30;9.83;;;;;;;6.66;100.00;100755.41;5013110;28;20599;-83
2023/02/03 00:50:55;;;;;;;13.40;11.97;;;;;;;6.68;100.00;100761.34;5012899;28;20177;-85
2023/02/03 00:53:21;;;;;;;11.60;10.60;;;;;;;6.73;100.00;100764.03;5013201;28;20231;-84
2023/02/03 00:55:46;;;;;;;10.03;9.10;;;;;;;6.77;100.00;100758.84;5011658;28;20188;-82
2023/02/03 00:58:11;;;;;;;9.87;9.10;;;;;;;6.81;100.00;100763.47;5012916;28;20682;-80
2023/02/03 01:00:37;;;;;;;11.77;10.07;;;;;;;6.84;100.00;100767.53;5012722;28;20181;-87
2023/02/03 01:03:02;;;;;;;12.03;10.83;;;;;;;6.90;100.00;100760.97;5013095;28;20263;-86
2023/02/03 01:05:27;;;;;;;13.20;10.57;;;;;;;6.94;100.00;100762.03;5012890;28;20252;-83
2023/02/03 01:07:53;;;;;;;14.67;10.80;;;;;;;6.98;100.00;100768.56;5012738;28;20283;-84
2023/02/03 01:10:18;;;;;;;11.67;10.67;;;;;;;6.98;100.00;100768.56;5012435;28;20437;-88
2023/02/03 01:12:43;;;;;;;12.80;10.67;;;;;;;7.00;100.00;100766.38;5012674;28;20169;-87
2023/02/03 01:15:09;;;;;;;10.93;9.93;;;;;;;7.00;100.00;100774.53;5012669;28;20172;-82
2023/02/03 01:17:34;;;;;;;10.03;8.97;;;;;;;7.02;100.00;100764.19;5012597;28;20172;-87
2023/02/03 01:20:00;;;;;;;18.40;12.10;;;;;;;7.03;100.00;100763.09;5012648;28;20172;-86
2023/02/03 01:22:27;;;;;;;14.90;7.77;;;;;;;7.04;100.00;100766.63;5012129;28;20719;-82
2023/02/03 01:24:52;;;;;;;17.63;13.10;;;;;;;7.04;100.00;100778.28;5013092;28;20183;-80
2023/02/03 01:27:18;;;;;;;12.83;8.97;;;;;;;7.05;100.00;100789.97;5012751;28;20177;-88
2023/02/03 01:29:43;;;;;;;9.70;8.80;;;;;;;7.06;100.00;100776.09;5012433;28;20578;-85
2023/02/03 01:32:08;;;;;;;13.40;12.00;;;;;;;7.11;100.00;100786.97;5012179;28;20180;-83
2023/02/03 01:34:33;;;;;;;13.23;9.43;;;;;;;7.14;100.00;100786.41;5012264;28;20176;-80
2023/02/03 01:36:59;;;;;;;8.33;7.30;;;;;;;7.17;100.00;100787.75;5012200;28;20267;-88
2023/02/03 01:39:25;;;;;;;9.67;8.73;;;;;;;7.21;100.00;100787.97;5012163;28;20215;-85
2023/02/03 01:41:50;;;;;;;6.47;5.77;;;;;;;7.20;100.00;100795.31;5011831;28;20208;-84
2023/02/03 01:44:38;;;;;;;11.90;10.90;;;;;;;7.26;100.00;100783.34;5012080;28;20180;-86
2023/02/03 01:47:10;;;;;;;8.30;7.53;;;;;;;7.28;100.00;100783.88;5011886;28;20537;-87
2023/02/03 01:49:37;;;;;;;11.20;10.20;;;;;;;7.27;100.00;100782.25;5011843;28;20738;-85
2023/02/03 01:52:03;;;;;;;12.47;7.70;;;;;;;7.31;100.00;100796.09;5011764;28;20177;-86
2023/02/03 01:54:32;;;;;;;13.07;11.80;;;;;;;7.27;100.00;100795.84;5012132;28;20191;-82
2023/02/03 01:57:02;;;;;;;17.83;10.57;;;;;;;7.32;100.00;100803.16;5011777;28;20191;-83
2023/02/03 01:59:28;;;;;;;10.80;8.47;;;;;;;7.34;100.00;100785.47;5011728;28;20271;-83
2023/02/03 02:01:54;;;;;;;8.20;6.40;;;;;;;7.33;100.00;100777.59;5011572;28;20176;-81
2023/02/03 02:04:21;;;;;;;8.70;8.00;;;;;;;7.33;100.00;100775.69;5010407;28;20668;-84
2023/02/03 02:06:47;;;;;;;8.80;6.70;;;;;;;7.35;100.00;100772.69;5011639;28;20181;-87
2023/02/03 02:09:14;;;;;;;9.70;8.03;;;;;;;7.36;100.00;100755.28;5011551;28;20230;-85
2023/02/03 02:11:40;;;;;;;12.60;10.30;;;;;;;7.35;100.00;100762.63;5011559;28;20535;-80
2023/02/03 02:14:06;;;;;;;13.97;9.20;;;;;;;7.39;100.00;100760.16;5011549;28;20195;-87
2023/02/03 02:16:51;;;;;;;12.30;9.67;;;;;;;7.48;100.00;100742.16;5011479;28;20462;-85
2023/02/03 02:19:29;;;;;;;8.60;7.87;;;;;;;7.47;100.00;100744.06;5011313;28;20234;-85
2023/02/03 02:22:08;;;;;;;18.33;9.80;;;;;;;7.49;100.00;100721.22;5011073;28;20763;-83
2023/02/03 02:24:44;;;;;;;13.03;8.90;;;;;;;7.51;100.00;100730.69;5011728;28;20176;-80
2023/02/03 02:27:30;;;;;;;8.27;7.50;;;;;;;7.51;100.00;100741.56;5011457;28;20208;-85
2023/02/03 02:30:04;;;;;;;8.37;7.27;;;;;;;7.49;100.00;100732.91;5011204;28;20262;-83
2023/02/03 02:32:45;;;;;;;9.70;8.80;;;;;;;7.51;100.00;100738.84;5011602;28;20183;-84
2023/02/03 02:35:47;;;;;;;9.00;8.30;;;;;;;7.59;100.00;100716.50;5011122;28;20568;-85
2023/02/03 02:38:25;;;;;;;6.30;5.70;;;;;;;7.57;100.00;100709.75;5011224;28;20220;-82
2023/02/03 02:41:15;;;;;;;7.40;6.27;;;;;;;7.58;100.00;100695.03;5011356;28;20175;-72
2023/02/03 02:43:48;;;;;;;13.60;8.90;;;;;;;7.55;100.00;100696.44;5011484;28;20840;-72
2023/02/03 02:46:26;;;;;;;11.63;8.97;;;;;;;7.58;100.00;100701.28;5012301;28;20199;-76
2023/02/03 02:49:08;;;;;;;8.27;6.90;;;;;;;7.54;100.00;100704.88;5009542;28;20204;-76
2023/02/03 02:51:36;;;;;;;7.17;6.47;;;;;;;7.56;100.00;100708.13;5011121;28;20189;-75
2023/02/03 02:54:08;;;;;;;7.40;6.70;;;;;;;7.58;100.00;100703.19;5011720;28;20633;-72
2023/02/03 02:56:37;;;;;;;10.47;7.57;;;;;;;7.59;100.00;100713.78;5011103;28;20168;-72
2023/02/03 02:59:05;;;;;;;7.77;5.90;;;;;;;7.60;100.00;100696.38;5010510;28;20177;-72
2023/02/03 03:01:30;;;;;;;7.97;7.20;;;;;;;7.58;100.00;100698.56;5011315;28;20226;-73
2023/02/03 03:03:58;;;;;;;5.80;5.30;;;;;;;7.54;100.00;100683.94;5010893;28;20168;-72
2023/02/03 03:06:26;;;;;;;9.13;8.33;;;;;;;7.47;100.00;100681.53;5010813;28;20172;-71
2023/02/03 03:09:06;;;;;;;8.13;5.70;;;;;;;7.49;100.00;100673.09;5010658;28;20679;-72
2023/02/03 03:11:37;;;;;;;7.83;7.20;;;;;;;7.51;100.00;100659.22;5010507;28;20179;-73
2023/02/03 03:14:05;;;;;;;8.20;7.40;;;;;;;7.62;100.00;100650.69;5010771;28;20188;-73
2023/02/03 03:16:34;;;;;;;5.80;5.40;;;;;;;7.63;100.00;100660.44;5010747;28;20180;-72
2023/02/03 03:19:17;;;;;;;11.83;6.60;;;;;;;7.61;100.00;100657.22;5010626;28;20255;-73
2023/02/03 03:21:52;;;;;;;5.67;5.17;;;;;;;7.62;100.00;100655.31;5010242;28;20230;-73
2023/02/03 03:24:25;;;;;;;7.73;7.10;;;;;;;7.64;100.00;100691.97;5009314;28;20172;-74
2023/02/03 03:27:01;;;;;;;5.70;5.03;;;;;;;7.68;100.00;100671.31;5010575;28;20548;-71
2023/02/03 03:29:34;;;;;;;6.37;5.87;;;;;;;7.67;100.00;100675.13;5010766;28;20208;-72
2023/02/03 03:32:00;;;;;;;8.60;5.33;;;;;;;7.66;100.00;100687.06;5010567;28;20176;-72
2023/02/03 03:34:27;;;;;;;6.60;6.10;;;;;;;7.69;100.00;100683.81;5010381;28;20173;-71
2023/02/03 03:37:05;;;;;;;6.83;6.10;;;;;;;7.72;100.00;100674.25;5010541;28;20172;-73
2023/02/03 03:39:39;;;;;;;7.17;5.00;;;;;;;7.75;100.00;100660.06;5010694;28;20168;-74
2023/02/03 03:42:26;;;;;;;6.20;5.63;;;;;;;7.74;100.00;100683.75;5009384;28;20583;-72
2023/02/03 03:45:00;;;;;;;6.37;5.87;;;;;;;7.73;100.00;100665.00;5010342;28;20256;-71
2023/02/03 03:47:36;;;;;;;5.87;5.37;;;;;;;7.75;100.00;100651.91;5010362;28;20169;-73
2023/02/03 03:50:05;;;;;;;10.57;6.33;;;;;;;7.71;100.00;100653.59;5010220;28;20184;-74
2023/02/03 03:52:34;;;;;;;9.40;6.40;;;;;;;7.70;100.00;100660.13;5010214;28;20177;-73
2023/02/03 03:55:04;;;;;;;5.77;5.37;;;;;;;7.68;100.00;100649.56;5010659;28;20200;-77
2023/02/03 03:57:37;;;;;;;5.90;5.40;;;;;;;7.66;100.00;100654.44;5008974;28;20720;-72
2023/02/03 04:00:05;;;;;;;6.83;6.23;;;;;;;7.67;100.00;100637.06;5010016;28;20255;-80
2023/02/03 04:02:33;;;;;;;6.43;5.93;;;;;;;7.64;100.00;100650.38;5008875;28;20182;-72
2023/02/03 04:05:00;;;;;;;10.37;7.87;;;;;;;7.66;100.00;100629.16;5010373;28;20185;-72
2023/02/03 04:07:46;;;;;;;7.83;7.13;;;;;;;7.65;100.00;100633.78;5010216;28;20278;-72
2023/02/03 04:10:22;;;;;;;6.90;6.40;;;;;;;7.61;100.00;100637.38;5011247;28;20263;-73
2023/02/03 04:12:47;;;;;;;7.00;6.33;;;;;;;7.63;100.00;100630.53;5013913;28;20176;-73
2023/02/03 04:15:12;;;;;;;6.97;6.33;;;;;;;7.63;100.00;100619.66;5012515;28;20179;-71
2023/02/03 04:17:38;;;;;;;8.17;6.73;;;;;;;7.69;100.00;100621.25;5013687;28;20189;-77
2023/02/03 04:20:04;;;;;;;7.23;5.00;;;;;;;7.68;100.00;100618.81;5013881;28;20551;-77
2023/02/03 04:22:29;;;;;;;7.43;6.73;;;;;;;7.69;100.00;100615.81;5013711;28;20223;-72
2023/02/03 04:24:57;;;;;;;5.37;4.97;;;;;;;7.69;100.00;100628.59;5012298;28;20208;-72
2023/02/03 04:27:23;;;;;;;4.93;4.50;;;;;;;7.66;100.00;100621.81;5013501;28;20177;-73
2023/02/03 04:29:49;;;;;;;7.33;6.17;;;;;;;7.66;100.00;100640.03;5013407;28;20294;-73
2023/02/03 04:32:15;;;;;;;6.93;5.63;;;;;;;7.68;100.00;100627.78;5013339;28;20213;-71
2023/02/03 04:34:40;;;;;;;6.40;4.57;;;;;;;7.66;100.00;100624.53;5013806;28;20555;-72
2023/02/03 04:37:05;;;;;;;9.17;5.17;;;;;;;7.68;100.00;100608.75;5013429;28;20185;-73
2023/02/03 04:39:30;;;;;;;5.80;5.40;;;;;;;7.70;100.00;100620.16;5011972;28;20181;-72
2023/02/03 04:41:56;;;;;;;7.27;3.60;;;;;;;7.68;100.00;100625.06;5013280;28;20672;-71
2023/02/03 04:44:21;;;;;;;4.37;4.00;;;;;;;7.66;100.00;100623.72;5013278;28;20179;-72
2023/02/03 04:46:46;;;;;;;19.43;4.53;;;;;;;7.67;100.00;100622.66;5013212;28;20195;-72
2023/02/03 04:49:12;;;;;;;5.30;4.80;;;;;;;7.70;100.00;100622.06;5013022;28;20200;-73
2023/02/03 04:51:37;;;;;;;11.03;4.63;;;;;;;7.72;100.00;100642.44;5012847;28;20706;-72
2023/02/03 04:54:02;;;;;;;6.60;4.47;;;;;;;7.71;100.00;100637.28;5013168;28;20179;-72
2023/02/03 04:56:28;;;;;;;3.90;3.50;;;;;;;7.74;100.00;100634.78;5013058;28;20568;-71
2023/02/03 04:58:53;;;;;;;4.30;2.77;;;;;;;7.73;100.00;100629.63;5013036;28;20539;-73
2023/02/03 05:01:18;;;;;;;8.10;6.00;;;;;;;7.70;100.00;100614.72;5011357;28;20188;-72
2023/02/03 05:03:43;;;;;;;7.60;5.77;;;;;;;7.75;100.00;100608.41;5012913;28;20176;-72
2023/02/03 05:06:09;;;;;;;9.37;5.00;;;;;;;7.80;100.00;100615.69;5012778;28;20304;-72
2023/02/03 05:08:34;;;;;;;5.83;5.33;;;;;;;7.76;100.00;100612.75;5012707;28;20295;-72
2023/02/03 05:10:59;;;;;;;3.77;3.53;;;;;;;7.78;100.00;100612.44;5012809;28;20181;-78
2023/02/03 05:13:25;;;;;;;5.37;4.10;;;;;;;7.74;100.00;100618.47;5012703;28;20264;-73
2023/02/03 05:15:50;;;;;;;6.07;4.57;;;;;;;7.70;100.00;100612.00;5012629;28;20176;-72
2023/02/03 05:18:15;;;;;;;3.93;3.53;;;;;;;7.73;100.00;100611.41;5012662;28;20176;-73
2023/02/03 05:20:40;;;;;;;6.00;4.20;;;;;;;7.71;100.00;100615.53;5012211;28;20181;-71
2023/02/03 05:23:06;;;;;;;4.70;3.37;;;;;;;7.69;100.00;100607.66;5012059;28;20230;-72
2023/02/03 05:25:31;;;;;;;10.57;4.07;;;;;;;7.68;100.00;100605.22;5012462;28;20180;-71
2023/02/03 05:27:56;;;;;;;7.63;5.10;;;;;;;7.68;100.00;100605.22;5012309;28;20663;-72
2023/02/03 05:30:22;;;;;;;5.40;4.00;;;;;;;7.69;100.00;100594.06;5012597;28;20176;-72
2023/02/03 05:32:49;;;;;;;5.20;4.70;;;;;;;7.70;100.00;100582.09;5012933;28;20556;-72
2023/02/03 05:35:14;;;;;;;10.90;4.80;;;;;;;7.71;100.00;100588.34;5012395;28;20466;-72
2023/02/03 05:37:39;;;;;;;8.97;3.73;;;;;;;7.69;100.00;100577.75;5012396;28;20503;-72
2023/02/03 05:42:49;;;;;;;3.80;3.47;;;;;;;7.67;100.00;100562.81;5012146;28;20234;-72
2023/02/03 05:45:16;;;;;;;6.63;3.07;;;;;;;7.71;100.00;100570.09;5012119;28;20671;-72
2023/02/03 05:47:41;;;;;;;11.17;5.67;;;;;;;7.71;100.00;100556.50;5011858;28;20187;-76
2023/02/03 05:50:07;;;;;;;5.07;4.07;;;;;;;7.72;100.00;100560.84;5011823;28;20176;-72
2023/02/03 05:52:32;;;;;;;4.53;4.13;;;;;;;7.72;100.00;100555.41;5011989;28;20208;-74
2023/02/03 05:54:58;;;;;;;3.20;2.67;;;;;;;7.72;100.00;100563.56;5011969;28;20177;-72
2023/02/03 05:57:23;;;;;;;5.03;2.47;;;;;;;7.73;100.00;100553.50;5011505;28;20656;-72
2023/02/03 05:59:48;;;;;;;3.67;3.37;;;;;;;7.70;100.00;100556.81;5010483;28;20176;-72
2023/02/03 06:02:14;;;;;;;5.57;3.17;;;;;;;7.71;100.00;100544.81;5011581;28;20173;-74
2023/02/03 06:04:40;;;;;;;7.23;5.00;;;;;;;7.69;100.00;100555.19;5011664;28;20199;-72
2023/02/03 06:07:05;;;;;;;3.90;3.47;;;;;;;7.65;100.00;100544.06;5011654;28;20267;-72
2023/02/03 06:09:30;;;;;;;6.33;4.07;;;;;;;7.62;100.00;100550.06;5011604;28;20208;-73
2023/02/03 06:11:56;;;;;;;8.27;4.93;;;;;;;7.62;100.00;100554.69;5011387;28;20633;-72
2023/02/03 06:14:21;;;;;;;2.67;2.47;;;;;;;7.64;100.00;100541.63;5011872;28;20204;-73
2023/02/03 06:16:46;;;;;;;6.70;3.87;;;;;;;7.62;100.00;100555.50;5011570;28;20180;-75
2023/02/03 06:19:11;;;;;;;4.27;3.97;;;;;;;7.61;100.00;100548.44;5011334;28;20199;-71
2023/02/03 06:21:37;;;;;;;4.27;3.60;;;;;;;7.64;100.00;100563.38;5011246;28;20257;-71
2023/02/03 06:24:02;;;;;;;5.30;4.63;;;;;;;7.61;100.00;100543.00;5011493;28;20791;-72
2023/02/03 06:26:28;;;;;;;8.73;4.20;;;;;;;7.62;100.00;100554.69;5011442;28;20177;-72
2023/02/03 06:28:53;;;;;;;4.57;4.03;;;;;;;7.60;100.00;100563.16;5011214;28;20208;-73
2023/02/03 06:31:18;;;;;;;4.20;3.00;;;;;;;7.57;100.00;100558.28;5011149;28;20180;-72
2023/02/03 06:33:44;;;;;;;9.27;4.07;;;;;;;7.55;100.00;100546.91;5010486;28;20385;-73
2023/02/03 06:36:09;;;;;;;6.07;3.40;;;;;;;7.55;100.00;100552.34;5011313;28;20181;-73
2023/02/03 06:38:35;;;;;;;6.53;4.10;;;;;;;7.59;100.00;100550.66;5011449;28;20187;-73
2023/02/03 06:41:00;;;;;;;13.10;5.13;;;;;;;7.58;100.00;100537.34;5011018;28;20177;-74
2023/02/03 06:43:25;;;;;;;7.17;3.43;;;;;;;7.55;100.00;100538.75;5011183;28;20181;-72
2023/02/03 06:45:51;;;;;;;4.40;3.60;;;;;;;7.57;100.00;100541.97;5011219;28;20524;-72
2023/02/03 06:48:16;;;;;;;5.47;2.90;;;;;;;7.55;100.00;100551.53;5010925;28;20208;-73
2023/02/03 06:50:42;;;;;;;4.10;3.70;;;;;;;7.54;100.00;100547.19;5011033;28;20172;-72
2023/02/03 06:53:07;;;;;;;2.50;2.10;;;;;;;7.50;100.00;100541.50;5011493;28;20203;-72
2023/02/03 06:55:32;;;;;;;7.20;3.33;;;;;;;7.50;100.00;100535.25;5010903;28;20651;-72
2023/02/03 06:57:57;;;;;;;7.10;4.27;;;;;;;7.47;100.00;100539.38;5010839;28;20574;-73
2023/02/03 07:00:23;;;;;;;4.47;2.57;;;;;;;7.48;100.00;100538.25;5010730;28;20177;-78
2023/02/03 07:02:55;;;;;;;5.13;3.03;;;;;;;7.47;100.00;100536.66;5010907;28;20172;-79
2023/02/03 07:05:22;;;;;;;2.10;2.00;;;;;;;7.46;100.00;100533.13;5010909;28;20204;-78
2023/02/03 07:07:47;;;;;;;3.80;3.50;;;;;;;7.43;100.00;100527.47;5010647;28;20640;-80
2023/02/03 07:10:13;;;;;;;6.63;4.23;;;;;;;7.41;100.00;100533.19;5009348;28;20220;-82
2023/02/03 07:12:38;;;;;;;13.57;3.90;;;;;;;7.34;100.00;100505.53;5010780;28;20183;-75
2023/02/03 07:15:04;;;;;;;6.10;4.53;;;;;;;7.28;100.00;100505.88;5010691;28;20279;-75
2023/02/03 07:17:29;;;;;;;6.50;3.47;;;;;;;7.24;100.00;100504.84;5010890;28;20212;-78
2023/02/03 07:19:55;;;;;;;9.90;5.43;;;;;;;7.22;100.00;100513.25;5010760;28;20173;-79
2023/02/03 07:22:20;;;;;;;9.63;4.80;;;;;;;7.23;100.00;100495.03;5009084;28;20545;-77
2023/02/03 07:24:45;;;;;;;3.33;3.00;;;;;;;7.23;100.00;100506.72;5010611;28;20173;-77
2023/02/03 07:27:11;;;;;;;4.83;4.53;;;;;;;7.25;100.00;100506.47;5010600;28;20180;-78
2023/02/03 07:29:36;;;;;;;2.97;2.73;;;;;;;7.26;100.00;100500.72;5009214;28;20216;-79
2023/02/03 07:32:01;;;;;;;4.03;3.50;;;;;;;7.26;100.00;100497.22;5009051;28;20184;-77
2023/02/03 07:34:27;;;;;;;6.47;3.17;;;;;;;7.28;100.00;100497.72;5010353;28;20191;-78
2023/02/03 07:36:52;;;;;;;3.53;3.30;;;;;;;7.28;100.00;100495.00;5010578;28;20181;-77
2023/02/03 07:39:18;;;;;;;3.17;2.23;;;;;;;7.30;100.00;100482.75;5010550;28;20176;-75
2023/02/03 07:41:43;;;;;;;4.80;2.70;;;;;;;7.30;100.00;100481.94;5010114;28;20187;-79
2023/02/03 07:44:08;;;;;;;5.37;2.97;;;;;;;7.32;100.00;100483.25;5010406;28;20640;-77
2023/02/03 07:46:35;;;;;;;8.73;3.10;;;;;;;7.33;100.00;100486.78;5014021;28;20201;-77
2023/02/03 07:49:03;;;;;;;3.23;2.97;;;;;;;7.40;100.00;100476.41;5014400;28;20192;-77
2023/02/03 07:51:28;;;;;;;3.00;2.80;;;;;;;7.39;100.00;100470.16;5014349;28;20250;-76
2023/02/03 07:53:55;;;;;;;2.50;2.30;;;;;;;7.38;100.00;100433.22;5014254;28;20663;-76
2023/02/03 07:56:20;;;;;;;4.50;2.23;;;;;;;7.35;100.00;100441.91;5014091;28;20169;-77
2023/02/03 07:58:45;;;;;;;2.20;2.00;;;;;;;7.34;100.00;100440.28;5014216;28;20215;-76
2023/02/03 08:01:14;;;;;;;2.17;2.07;;;;;;;7.37;100.00;100471.50;5013916;28;20191;-78
2023/02/03 08:03:40;;;;;;;3.37;1.90;;;;;;;7.38;100.00;100465.00;5014083;28;20180;-77
2023/02/03 08:06:05;;;;;;;4.30;1.97;;;;;;;7.40;100.00;100457.38;5014011;28;20173;-77
2023/02/03 08:08:31;;;;;;;2.53;2.13;;;;;;;7.42;100.00;100444.31;5012607;28;20273;-77
2023/02/03 08:10:56;;;;;;;2.23;2.00;;;;;;;7.44;100.00;100458.41;5014062;28;20251;-77
2023/02/03 08:13:21;;;;;;;1.50;1.40;;;;;;;7.43;100.00;100459.50;5014154;28;20176;-77
2023/02/03 08:15:47;;;;;;;2.17;1.70;;;;;;;7.43;100.00;100448.63;5013293;28;20318;-76
2023/02/03 08:18:12;;;;;;;1.73;1.63;;;;;;;7.40;100.00;100435.63;5013783;28;20188;-77
2023/02/03 08:20:38;;;;;;;2.70;2.50;;;;;;;7.39;100.00;100437.53;5013921;28;20215;-77
2023/02/03 08:23:03;;;;;;;1.70;1.60;;;;;;;7.43;100.00;100460.31;5013687;28;20593;-77
2023/02/03 08:25:28;;;;;;;2.00;1.90;;;;;;;7.51;100.00;100447.16;5011838;28;20185;-74
2023/02/03 08:27:54;;;;;;;1.63;1.53;;;;;;;7.54;100.00;100466.44;4990387;28;20189;-77
2023/02/03 08:30:19;;;;;;;1.40;1.30;;;;;;;7.59;100.00;100468.28;4992049;28;20660;-77
2023/02/03 08:32:44;;;;;;;1.53;1.43;;;;;;;7.60;100.00;100468.00;4992071;28;20232;-77
2023/02/03 08:35:10;;;;;;;1.80;1.57;;;;;;;7.65;100.00;100448.06;4992097;28;20578;-77
2023/02/03 08:37:35;;;;;;;2.13;1.40;;;;;;;7.69;100.00;100443.69;4993167;28;20554;-78
2023/02/03 08:40:01;;;;;;;3.70;1.70;;;;;;;7.72;100.00;100443.09;4993255;28;20189;-76
2023/02/03 08:42:26;;;;;;;1.60;1.50;;;;;;;7.81;100.00;100446.81;4993506;28;20620;-79
2023/02/03 08:44:51;;;;;;;1.83;1.70;;;;;;;7.86;100.00;100448.63;4994123;28;20239;-77
2023/02/03 08:47:17;;;;;;;2.33;1.67;;;;;;;7.85;100.00;100472.31;4994055;28;20260;-78
2023/02/03 08:49:43;;;;;;;1.63;1.53;;;;;;;7.88;100.00;100487.22;4993979;28;20209;-79
2023/02/03 08:52:11;;;;;;;3.17;2.77;;;;;;;7.86;100.00;100486.72;4993794;28;20181;-78
2023/02/03 08:54:36;;;;;;;3.13;2.83;;;;;;;7.88;100.00;100449.94;4992513;28;20188;-77
2023/02/03 08:57:02;;;;;;;3.97;2.67;;;;;;;7.89;100.00;100456.19;4992887;28;20185;-77
2023/02/03 08:59:28;;;;;;;2.57;2.37;;;;;;;7.90;100.00;100495.91;4993857;28;20181;-77
2023/02/03 09:01:53;;;;;;;3.23;3.00;;;;;;;7.86;100.00;100468.47;4993510;28;20174;-76
2023/02/03 09:04:23;;;;;;;3.67;3.03;;;;;;;7.89;100.00;100465.16;4993616;28;20181;-75
2023/02/03 09:06:49;;;;;;;2.40;2.30;;;;;;;7.87;100.00;100470.09;4993532;28;20177;-78
2023/02/03 09:09:14;;;;;;;3.37;3.07;;;;;;;7.83;100.00;100482.66;4993609;28;20216;-76
2023/02/03 09:11:41;;;;;;;6.00;3.27;;;;;;;7.76;100.00;100463.97;4993354;28;20181;-81
2023/02/03 09:14:07;;;;;;;9.07;5.17;;;;;;;7.68;100.00;100482.88;4993512;28;20252;-76
2023/02/03 09:16:33;;;;;;;3.63;3.33;;;;;;;7.61;100.00;100477.75;4993512;28;20281;-76
2023/02/03 09:18:58;;;;;;;7.00;3.43;;;;;;;7.60;100.00;100488.94;4993428;28;20195;-77
2023/02/03 09:21:24;;;;;;;5.20;4.70;;;;;;;7.61;100.00;100468.81;4989834;28;20395;-75
2023/02/03 09:23:49;;;;;;;3.03;2.57;;;;;;;7.67;100.00;100494.84;4986778;28;20214;-78
2023/02/03 09:26:16;;;;;;;3.87;3.57;;;;;;;7.70;100.00;100492.34;4973634;28;20177;-78
2023/02/03 09:28:41;;;;;;;10.77;4.77;;;;;;;7.76;100.00;100480.28;4973437;28;20210;-77
2023/02/03 09:31:11;;;;;;;4.27;2.93;;;;;;;7.79;100.00;100492.50;4973576;28;20220;-74
2023/02/03 09:33:37;;;;;;;3.97;3.63;;;;;;;7.81;100.00;100465.84;4974385;28;20170;-72
2023/02/03 09:36:07;;;;;;;8.33;5.10;;;;;;;7.90;100.00;100479.56;4973545;28;20189;-74
2023/02/03 09:38:33;;;;;;;8.93;4.73;;;;;;;7.91;100.00;100481.19;4972030;28;20186;-77
2023/02/03 09:41:29;;;;;;;4.00;3.27;;;;;;;7.92;100.00;100488.25;4973534;28;20257;-77
2023/02/03 09:44:20;;;;;;;6.10;3.10;;;;;;;7.94;100.00;100467.00;4973642;28;20201;-78
2023/02/03 09:46:59;;;;;;;6.40;3.27;;;;;;;7.94;100.00;100459.66;4973710;28;20185;-78
2023/02/03 09:50:01;;;;;;;4.13;3.73;;;;;;;8.02;100.00;100469.06;4973305;28;20205;-78
2023/02/03 09:52:31;;;;;;;3.63;2.97;;;;;;;7.94;100.00;100470.53;4988471;28;20186;-78
2023/02/03 09:55:24;;;;;;;12.37;4.17;;;;;;;7.83;100.00;100460.09;4973241;28;20181;-79
2023/02/03 09:58:00;;;;;;;4.67;2.80;;;;;;;7.73;100.00;100455.59;4973444;28;20175;-79
2023/02/03 10:00:29;;;;;;;3.87;3.27;;;;;;;7.71;100.00;100480.38;4985080;28;20231;-79
2023/02/03 10:03:04;;;;;;;2.37;1.93;;;;;;;7.73;100.00;100496.38;4992673;28;20180;-79
2023/02/03 10:05:47;;;;;;;5.93;2.30;;;;;;;7.79;100.00;100487.06;4992700;28;20227;-78
2023/02/03 10:08:33;;;;;;;5.43;2.37;;;;;;;7.85;100.00;100466.06;4992382;28;20196;-75
2023/02/03 10:11:19;;;;;;;3.90;1.93;;;;;;;7.94;100.00;100458.84;4991025;28;20659;-76
2023/02/03 10:14:07;;;;;;;2.27;2.07;;;;;;;8.00;100.00;100453.03;4992506;28;20185;-76
2023/02/03 10:16:58;;;;;;;4.00;1.60;;;;;;;7.98;100.00;100478.94;4992428;28;20169;-77
2023/02/03 10:19:40;;;;;;;1.63;1.53;;;;;;;7.93;100.00;100451.78;4992656;28;20177;-76
2023/02/03 10:22:13;;;;;;;2.97;2.10;;;;;;;7.87;100.00;100480.97;4992160;28;20197;-77
2023/02/03 10:24:44;;;;;;;1.90;1.33;;;;;;;7.93;100.00;100462.66;4992330;28;20174;-77
2023/02/03 10:27:19;;;;;;;8.33;1.30;;;;;;;7.93;100.00;100473.53;4992167;28;20256;-71
2023/02/03 10:29:53;;;;;;;3.07;1.17;;;;;;;7.92;100.00;100469.22;4992572;28;20204;-70
2023/02/03 10:32:19;;;;;;;1.30;1.17;;;;;;;7.91;100.00;100471.13;4994994;28;20161;-70
2023/02/03 10:34:46;;;;;;;3.37;1.13;;;;;;;7.91;100.00;100473.03;4994254;28;20260;-70
2023/02/03 10:37:21;;;;;;;2.10;1.57;;;;;;;7.99;100.00;100496.88;4991533;28;20207;-70
2023/02/03 10:39:51;;;;;;;2.80;1.77;;;;;;;8.05;100.00;100495.69;4992036;28;20700;-70
2023/02/03 10:42:17;;;;;;;0.67;0.67;;;;;;;8.03;100.00;100523.19;4991958;28;20177;-70
2023/02/03 10:44:50;;;;;;;1.60;1.10;;;;;;;8.06;100.00;100516.34;4992080;28;20204;-71
2023/02/03 10:47:37;;;;;;;11.43;1.20;;;;;;;8.07;100.00;100517.97;4991877;28;20604;-71
2023/02/03 10:50:14;;;;;;;5.30;1.50;;;;;;;8.10;100.00;100533.72;4993921;28;20196;-71
2023/02/03 10:52:40;;;;;;;0.83;0.83;;;;;;;8.15;100.00;100527.41;4991987;28;20173;-70
2023/02/03 10:55:27;;;;;;;1.37;1.10;;;;;;;8.12;100.00;100493.44;4991775;28;20184;-70
2023/02/03 10:57:53;;;;;;;4.50;1.13;;;;;;;8.09;100.00;100521.19;4991667;28;20177;-70
2023/02/03 11:00:34;;;;;;;3.50;0.67;;;;;;;8.05;100.00;100547.38;4991548;28;20196;-72
2023/02/03 11:03:05;;;;;;;4.83;1.20;;;;;;;8.02;100.00;100509.88;4991598;28;20219;-70
2023/02/03 11:05:31;;;;;;;0.20;0.20;;;;;;;8.07;100.00;100532.38;4991645;28;20204;-73
2023/02/03 11:07:56;;;;;;;2.33;0.60;;;;;;;8.06;100.00;100530.75;4991429;28;20199;-71
2023/02/03 11:10:34;;;;;;;1.17;0.43;;;;;;;8.02;100.00;100520.78;4991598;28;20184;-70
2023/02/03 11:13:24;;;;;;;1.07;0.40;;;;;;;8.02;100.00;100547.97;4991664;28;20244;-70
2023/02/03 11:15:50;;;;;;;3.40;0.97;;;;;;;8.00;100.00;100556.44;4991592;28;20174;-70
2023/02/03 11:18:24;;;;;;;3.73;0.77;;;;;;;8.02;100.00;100537.09;4991507;28;20177;-70
2023/02/03 11:20:50;;;;;;;2.63;0.90;;;;;;;8.07;100.00;100528.84;4990919;28;20181;-71
2023/02/03 11:23:19;;;;;;;12.43;0.90;;;;;;;8.09;100.00;100534.81;4991355;28;20196;-72
2023/02/03 11:25:44;;;;;;;2.60;0.63;;;;;;;8.12;100.00;100544.31;5002591;28;20188;-71
2023/02/03 11:28:12;;;;;;;2.00;1.03;;;;;;;8.12;100.00;100547.84;5011021;28;20199;-71
2023/02/03 11:30:38;;;;;;;9.33;0.60;;;;;;;8.14;100.00;100532.03;5010905;28;20169;-70
2023/02/03 11:33:17;;;;;;;2.20;0.87;;;;;;;8.16;100.00;100540.72;5011086;28;20172;-70